sensor_id;sensor_type;location;lat;lon;timestamp;P1;durP1;ratioP1;P2;durP2;ratioP2
49193;SDS011;35029;50.804;12.866;2023-03-20T00:00:37;4.78;;;3.53;;
49193;SDS011;35029;50.804;12.866;2023-03-20T00:03:03;3.47;;;3.10;;
49193;SDS011;35029;50.804;12.866;2023-03-20T00:05:29;3.50;;;2.85;;
49193;SDS011;35029;50.804;12.866;2023-03-20T00:07:56;4.80;;;3.63;;
49193;SDS011;35029;50.804;12.866;2023-03-20T00:10:30;6.13;;;3.00;;
49193;SDS011;35029;50.804;12.866;2023-03-20T00:12:59;3.35;;;3.00;;
49193;SDS011;35029;50.804;12.866;2023-03-20T00:15:27;5.05;;;3.47;;
49193;SDS011;35029;50.804;12.866;2023-03-20T00:17:56;4.20;;;3.72;;
49193;SDS011;35029;50.804;12.866;2023-03-20T00:20:23;3.53;;;3.20;;
49193;SDS011;35029;50.804;12.866;2023-03-20T00:22:49;4.38;;;3.75;;
49193;SDS011;35029;50.804;12.866;2023-03-20T00:25:16;4.80;;;3.72;;
49193;SDS011;35029;50.804;12.866;2023-03-20T00:32:44;4.20;;;3.08;;
49193;SDS011;35029;50.804;12.866;2023-03-20T00:35:17;4.03;;;2.97;;
49193;SDS011;35029;50.804;12.866;2023-03-20T00:37:51;4.38;;;3.38;;
49193;SDS011;35029;50.804;12.866;2023-03-20T00:40:17;5.03;;;3.63;;
49193;SDS011;35029;50.804;12.866;2023-03-20T00:42:44;4.93;;;3.70;;
49193;SDS011;35029;50.804;12.866;2023-03-20T00:45:15;5.38;;;3.78;;
49193;SDS011;35029;50.804;12.866;2023-03-20T00:47:43;4.05;;;3.50;;
49193;SDS011;35029;50.804;12.866;2023-03-20T00:50:20;5.15;;;3.58;;
49193;SDS011;35029;50.804;12.866;2023-03-20T00:52:48;4.40;;;3.17;;
49193;SDS011;35029;50.804;12.866;2023-03-20T00:55:15;3.88;;;3.47;;
49193;SDS011;35029;50.804;12.866;2023-03-20T00:57:42;4.55;;;3.80;;
49193;SDS011;35029;50.804;12.866;2023-03-20T01:02:45;4.57;;;3.38;;
49193;SDS011;35029;50.804;12.866;2023-03-20T01:05:11;4.88;;;3.88;;
49193;SDS011;35029;50.804;12.866;2023-03-20T01:07:37;5.95;;;3.88;;
49193;SDS011;35029;50.804;12.866;2023-03-20T01:10:04;4.65;;;3.90;;
49193;SDS011;35029;50.804;12.866;2023-03-20T01:12:31;4.38;;;3.58;;
49193;SDS011;35029;50.804;12.866;2023-03-20T01:14:56;5.70;;;3.75;;
49193;SDS011;35029;50.804;12.866;2023-03-20T01:17:23;3.92;;;3.53;;
49193;SDS011;35029;50.804;12.866;2023-03-20T01:19:50;4.93;;;3.45;;
49193;SDS011;35029;50.804;12.866;2023-03-20T01:22:15;4.28;;;3.25;;
49193;SDS011;35029;50.804;12.866;2023-03-20T01:24:44;4.97;;;3.50;;
49193;SDS011;35029;50.804;12.866;2023-03-20T01:27:11;5.53;;;3.55;;
49193;SDS011;35029;50.804;12.866;2023-03-20T01:29:39;4.13;;;3.60;;
49193;SDS011;35029;50.804;12.866;2023-03-20T01:32:12;4.40;;;4.00;;
49193;SDS011;35029;50.804;12.866;2023-03-20T01:34:46;8.05;;;3.78;;
49193;SDS011;35029;50.804;12.866;2023-03-20T01:37:30;6.75;;;4.30;;
49193;SDS011;35029;50.804;12.866;2023-03-20T01:40:00;6.38;;;3.35;;
49193;SDS011;35029;50.804;12.866;2023-03-20T01:42:27;4.78;;;3.53;;
49193;SDS011;35029;50.804;12.866;2023-03-20T01:44:53;4.95;;;3.50;;
49193;SDS011;35029;50.804;12.866;2023-03-20T01:47:21;4.25;;;3.85;;
49193;SDS011;35029;50.804;12.866;2023-03-20T01:52:24;5.70;;;4.32;;
49193;SDS011;35029;50.804;12.866;2023-03-20T01:54:50;4.90;;;3.58;;
49193;SDS011;35029;50.804;12.866;2023-03-20T01:57:20;4.20;;;3.60;;
49193;SDS011;35029;50.804;12.866;2023-03-20T02:00:10;5.05;;;3.67;;
49193;SDS011;35029;50.804;12.866;2023-03-20T02:02:40;3.42;;;3.13;;
49193;SDS011;35029;50.804;12.866;2023-03-20T02:05:09;3.88;;;3.17;;
49193;SDS011;35029;50.804;12.866;2023-03-20T02:07:37;3.70;;;3.13;;
49193;SDS011;35029;50.804;12.866;2023-03-20T02:10:10;3.63;;;3.00;;
49193;SDS011;35029;50.804;12.866;2023-03-20T02:12:50;5.40;;;3.70;;
49193;SDS011;35029;50.804;12.866;2023-03-20T02:15:26;4.60;;;3.50;;
49193;SDS011;35029;50.804;12.866;2023-03-20T02:18:04;4.00;;;3.25;;
49193;SDS011;35029;50.804;12.866;2023-03-20T02:20:55;5.47;;;3.83;;
49193;SDS011;35029;50.804;12.866;2023-03-20T02:48:46;3.58;;;2.33;;
49193;SDS011;35029;50.804;12.866;2023-03-20T02:51:40;3.08;;;2.50;;
49193;SDS011;35029;50.804;12.866;2023-03-20T02:57:15;5.32;;;2.70;;
49193;SDS011;35029;50.804;12.866;2023-03-20T03:02:33;3.22;;;2.22;;
49193;SDS011;35029;50.804;12.866;2023-03-20T03:05:05;3.28;;;2.38;;
49193;SDS011;35029;50.804;12.866;2023-03-20T03:07:46;3.45;;;2.58;;
49193;SDS011;35029;50.804;12.866;2023-03-20T03:10:37;2.90;;;2.38;;
49193;SDS011;35029;50.804;12.866;2023-03-20T03:13:02;2.92;;;2.55;;
49193;SDS011;35029;50.804;12.866;2023-03-20T03:15:41;2.63;;;2.20;;
49193;SDS011;35029;50.804;12.866;2023-03-20T03:18:12;3.28;;;2.50;;
49193;SDS011;35029;50.804;12.866;2023-03-20T03:20:43;2.75;;;2.03;;
49193;SDS011;35029;50.804;12.866;2023-03-20T03:23:14;2.47;;;2.28;;
49193;SDS011;35029;50.804;12.866;2023-03-20T03:26:03;3.22;;;2.38;;
49193;SDS011;35029;50.804;12.866;2023-03-20T03:28:32;3.55;;;2.63;;
49193;SDS011;35029;50.804;12.866;2023-03-20T03:31:11;4.57;;;2.95;;
49193;SDS011;35029;50.804;12.866;2023-03-20T03:33:40;3.38;;;2.47;;
49193;SDS011;35029;50.804;12.866;2023-03-20T03:39:11;2.42;;;2.22;;
49193;SDS011;35029;50.804;12.866;2023-03-20T03:41:52;3.05;;;2.60;;
49193;SDS011;35029;50.804;12.866;2023-03-20T03:44:29;2.60;;;2.40;;
49193;SDS011;35029;50.804;12.866;2023-03-20T03:47:05;3.05;;;2.40;;
49193;SDS011;35029;50.804;12.866;2023-03-20T03:49:45;4.78;;;3.17;;
49193;SDS011;35029;50.804;12.866;2023-03-20T03:52:17;4.03;;;2.42;;
49193;SDS011;35029;50.804;12.866;2023-03-20T03:57:28;4.35;;;3.00;;
49193;SDS011;35029;50.804;12.866;2023-03-20T03:59:58;4.00;;;2.50;;
49193;SDS011;35029;50.804;12.866;2023-03-20T04:02:38;4.88;;;2.25;;
49193;SDS011;35029;50.804;12.866;2023-03-20T04:05:07;3.33;;;2.38;;
49193;SDS011;35029;50.804;12.866;2023-03-20T04:07:34;4.03;;;2.28;;
49193;SDS011;35029;50.804;12.866;2023-03-20T04:10:00;3.78;;;2.45;;
49193;SDS011;35029;50.804;12.866;2023-03-20T04:12:33;3.42;;;2.25;;
49193;SDS011;35029;50.804;12.866;2023-03-20T04:15:07;2.80;;;2.05;;
49193;SDS011;35029;50.804;12.866;2023-03-20T04:17:35;2.47;;;2.00;;
49193;SDS011;35029;50.804;12.866;2023-03-20T04:20:00;3.28;;;2.55;;
49193;SDS011;35029;50.804;12.866;2023-03-20T04:22:26;3.38;;;2.28;;
49193;SDS011;35029;50.804;12.866;2023-03-20T04:24:53;3.72;;;2.17;;
49193;SDS011;35029;50.804;12.866;2023-03-20T04:27:19;5.03;;;2.92;;
49193;SDS011;35029;50.804;12.866;2023-03-20T04:29:45;3.00;;;2.28;;
49193;SDS011;35029;50.804;12.866;2023-03-20T04:32:40;2.85;;;2.60;;
49193;SDS011;35029;50.804;12.866;2023-03-20T04:35:27;2.92;;;2.55;;
49193;SDS011;35029;50.804;12.866;2023-03-20T04:37:56;5.20;;;3.00;;
49193;SDS011;35029;50.804;12.866;2023-03-20T04:40:22;2.83;;;2.40;;
49193;SDS011;35029;50.804;12.866;2023-03-20T04:42:48;18.00;;;10.95;;
49193;SDS011;35029;50.804;12.866;2023-03-20T04:45:13;24.17;;;13.40;;
49193;SDS011;35029;50.804;12.866;2023-03-20T04:47:40;9.95;;;6.75;;
49193;SDS011;35029;50.804;12.866;2023-03-20T04:50:07;6.97;;;4.15;;
49193;SDS011;35029;50.804;12.866;2023-03-20T04:52:33;3.22;;;2.92;;
49193;SDS011;35029;50.804;12.866;2023-03-20T04:54:58;3.55;;;2.92;;
49193;SDS011;35029;50.804;12.866;2023-03-20T04:57:24;3.20;;;2.83;;
49193;SDS011;35029;50.804;12.866;2023-03-20T04:59:50;4.72;;;2.97;;
49193;SDS011;35029;50.804;12.866;2023-03-20T05:02:16;2.83;;;2.53;;
49193;SDS011;35029;50.804;12.866;2023-03-20T05:04:42;4.22;;;3.17;;
49193;SDS011;35029;50.804;12.866;2023-03-20T05:07:08;5.35;;;3.50;;
49193;SDS011;35029;50.804;12.866;2023-03-20T05:09:52;4.05;;;3.22;;
49193;SDS011;35029;50.804;12.866;2023-03-20T05:12:18;4.57;;;3.00;;
49193;SDS011;35029;50.804;12.866;2023-03-20T05:15:02;4.60;;;3.30;;
49193;SDS011;35029;50.804;12.866;2023-03-20T05:17:46;5.13;;;3.75;;
49193;SDS011;35029;50.804;12.866;2023-03-20T05:20:24;6.10;;;3.78;;
49193;SDS011;35029;50.804;12.866;2023-03-20T05:23:15;4.30;;;3.40;;
49193;SDS011;35029;50.804;12.866;2023-03-20T05:26:01;4.03;;;3.22;;
49193;SDS011;35029;50.804;12.866;2023-03-20T05:28:30;6.95;;;3.22;;
49193;SDS011;35029;50.804;12.866;2023-03-20T05:31:18;4.28;;;3.47;;
49193;SDS011;35029;50.804;12.866;2023-03-20T05:34:04;4.13;;;3.20;;
49193;SDS011;35029;50.804;12.866;2023-03-20T05:36:56;5.93;;;3.70;;
49193;SDS011;35029;50.804;12.866;2023-03-20T05:39:54;6.53;;;3.83;;
49193;SDS011;35029;50.804;12.866;2023-03-20T05:42:58;6.55;;;3.90;;
49193;SDS011;35029;50.804;12.866;2023-03-20T05:45:50;3.88;;;3.45;;
49193;SDS011;35029;50.804;12.866;2023-03-20T05:48:45;6.45;;;3.20;;
49193;SDS011;35029;50.804;12.866;2023-03-20T05:51:31;6.18;;;4.75;;
49193;SDS011;35029;50.804;12.866;2023-03-20T05:54:05;6.25;;;4.75;;
49193;SDS011;35029;50.804;12.866;2023-03-20T05:56:48;6.35;;;4.30;;
49193;SDS011;35029;50.804;12.866;2023-03-20T05:59:46;6.70;;;4.60;;
49193;SDS011;35029;50.804;12.866;2023-03-20T06:02:24;5.60;;;4.50;;
49193;SDS011;35029;50.804;12.866;2023-03-20T06:04:58;4.13;;;3.47;;
49193;SDS011;35029;50.804;12.866;2023-03-20T06:07:29;4.90;;;3.88;;
49193;SDS011;35029;50.804;12.866;2023-03-20T06:09:59;6.07;;;4.10;;
49193;SDS011;35029;50.804;12.866;2023-03-20T06:12:25;6.45;;;4.22;;
49193;SDS011;35029;50.804;12.866;2023-03-20T06:14:51;12.85;;;5.30;;
49193;SDS011;35029;50.804;12.866;2023-03-20T06:17:16;8.52;;;4.85;;
49193;SDS011;35029;50.804;12.866;2023-03-20T06:19:47;4.95;;;4.45;;
49193;SDS011;35029;50.804;12.866;2023-03-20T06:22:13;8.02;;;5.10;;
49193;SDS011;35029;50.804;12.866;2023-03-20T06:24:39;6.20;;;4.70;;
49193;SDS011;35029;50.804;12.866;2023-03-20T06:27:05;5.88;;;4.85;;
49193;SDS011;35029;50.804;12.866;2023-03-20T06:29:31;7.55;;;5.55;;
49193;SDS011;35029;50.804;12.866;2023-03-20T06:32:08;8.05;;;5.35;;
49193;SDS011;35029;50.804;12.866;2023-03-20T06:34:35;11.35;;;5.47;;
49193;SDS011;35029;50.804;12.866;2023-03-20T06:37:02;8.38;;;5.70;;
49193;SDS011;35029;50.804;12.866;2023-03-20T06:39:28;8.15;;;6.13;;
49193;SDS011;35029;50.804;12.866;2023-03-20T06:41:55;9.75;;;6.13;;
49193;SDS011;35029;50.804;12.866;2023-03-20T06:44:22;8.98;;;6.07;;
49193;SDS011;35029;50.804;12.866;2023-03-20T06:47:07;6.43;;;5.28;;
49193;SDS011;35029;50.804;12.866;2023-03-20T06:49:33;8.95;;;6.18;;
49193;SDS011;35029;50.804;12.866;2023-03-20T06:51:58;8.43;;;5.55;;
49193;SDS011;35029;50.804;12.866;2023-03-20T06:54:24;7.40;;;6.10;;
49193;SDS011;35029;50.804;12.866;2023-03-20T06:56:50;8.20;;;5.45;;
49193;SDS011;35029;50.804;12.866;2023-03-20T06:59:18;7.03;;;5.70;;
49193;SDS011;35029;50.804;12.866;2023-03-20T07:01:44;8.27;;;5.63;;
49193;SDS011;35029;50.804;12.866;2023-03-20T07:04:09;9.05;;;5.57;;
49193;SDS011;35029;50.804;12.866;2023-03-20T07:06:42;9.00;;;5.80;;
49193;SDS011;35029;50.804;12.866;2023-03-20T07:09:08;9.32;;;5.88;;
49193;SDS011;35029;50.804;12.866;2023-03-20T07:11:33;6.43;;;5.68;;
49193;SDS011;35029;50.804;12.866;2023-03-20T07:13:59;7.50;;;5.80;;
49193;SDS011;35029;50.804;12.866;2023-03-20T07:16:40;6.85;;;5.85;;
49193;SDS011;35029;50.804;12.866;2023-03-20T07:19:06;11.50;;;6.35;;
49193;SDS011;35029;50.804;12.866;2023-03-20T07:21:33;7.30;;;6.00;;
49193;SDS011;35029;50.804;12.866;2023-03-20T07:23:59;6.65;;;5.95;;
49193;SDS011;35029;50.804;12.866;2023-03-20T07:26:25;8.55;;;5.65;;
49193;SDS011;35029;50.804;12.866;2023-03-20T07:28:51;5.95;;;5.45;;
49193;SDS011;35029;50.804;12.866;2023-03-20T07:31:23;8.02;;;5.53;;
49193;SDS011;35029;50.804;12.866;2023-03-20T07:34:02;5.87;;;5.27;;
49193;SDS011;35029;50.804;12.866;2023-03-20T07:36:28;8.07;;;6.47;;
49193;SDS011;35029;50.804;12.866;2023-03-20T07:38:53;7.93;;;5.82;;
49193;SDS011;35029;50.804;12.866;2023-03-20T07:41:19;6.97;;;6.22;;
49193;SDS011;35029;50.804;12.866;2023-03-20T07:43:55;6.57;;;5.60;;
49193;SDS011;35029;50.804;12.866;2023-03-20T07:46:45;8.85;;;6.05;;
49193;SDS011;35029;50.804;12.866;2023-03-20T07:49:12;5.97;;;5.38;;
49193;SDS011;35029;50.804;12.866;2023-03-20T07:51:38;7.45;;;6.00;;
49193;SDS011;35029;50.804;12.866;2023-03-20T07:54:04;12.73;;;6.55;;
49193;SDS011;35029;50.804;12.866;2023-03-20T07:56:30;8.30;;;5.53;;
49193;SDS011;35029;50.804;12.866;2023-03-20T07:58:55;6.28;;;5.53;;
49193;SDS011;35029;50.804;12.866;2023-03-20T08:01:21;7.53;;;5.55;;
49193;SDS011;35029;50.804;12.866;2023-03-20T08:03:47;5.50;;;5.00;;
49193;SDS011;35029;50.804;12.866;2023-03-20T08:06:13;8.23;;;6.28;;
49193;SDS011;35029;50.804;12.866;2023-03-20T08:08:39;6.70;;;5.20;;
49193;SDS011;35029;50.804;12.866;2023-03-20T08:11:06;5.70;;;4.90;;
49193;SDS011;35029;50.804;12.866;2023-03-20T08:13:31;6.28;;;5.18;;
49193;SDS011;35029;50.804;12.866;2023-03-20T08:15:57;5.40;;;4.90;;
49193;SDS011;35029;50.804;12.866;2023-03-20T08:18:22;6.97;;;4.97;;
49193;SDS011;35029;50.804;12.866;2023-03-20T08:20:48;5.53;;;4.78;;
49193;SDS011;35029;50.804;12.866;2023-03-20T08:23:16;7.72;;;5.30;;
49193;SDS011;35029;50.804;12.866;2023-03-20T08:25:45;5.97;;;5.38;;
49193;SDS011;35029;50.804;12.866;2023-03-20T08:28:15;7.78;;;5.43;;
49193;SDS011;35029;50.804;12.866;2023-03-20T08:30:41;6.93;;;5.72;;
49193;SDS011;35029;50.804;12.866;2023-03-20T08:33:07;5.43;;;4.93;;
49193;SDS011;35029;50.804;12.866;2023-03-20T08:35:33;7.60;;;5.13;;
49193;SDS011;35029;50.804;12.866;2023-03-20T08:37:59;5.95;;;5.35;;
49193;SDS011;35029;50.804;12.866;2023-03-20T08:40:25;6.03;;;5.28;;
49193;SDS011;35029;50.804;12.866;2023-03-20T08:42:51;6.03;;;5.38;;
49193;SDS011;35029;50.804;12.866;2023-03-20T08:45:16;6.60;;;4.97;;
49193;SDS011;35029;50.804;12.866;2023-03-20T08:47:42;5.60;;;5.05;;
49193;SDS011;35029;50.804;12.866;2023-03-20T08:50:10;7.35;;;5.93;;
49193;SDS011;35029;50.804;12.866;2023-03-20T08:52:36;7.05;;;5.70;;
49193;SDS011;35029;50.804;12.866;2023-03-20T08:55:01;6.90;;;5.40;;
49193;SDS011;35029;50.804;12.866;2023-03-20T08:57:27;6.57;;;5.13;;
49193;SDS011;35029;50.804;12.866;2023-03-20T08:59:53;6.13;;;5.25;;
49193;SDS011;35029;50.804;12.866;2023-03-20T09:02:19;6.47;;;5.82;;
49193;SDS011;35029;50.804;12.866;2023-03-20T09:04:44;7.88;;;5.85;;
49193;SDS011;35029;50.804;12.866;2023-03-20T09:07:10;6.38;;;5.55;;
49193;SDS011;35029;50.804;12.866;2023-03-20T09:09:36;10.13;;;6.30;;
49193;SDS011;35029;50.804;12.866;2023-03-20T09:12:01;8.95;;;5.97;;
49193;SDS011;35029;50.804;12.866;2023-03-20T09:14:29;6.82;;;6.13;;
49193;SDS011;35029;50.804;12.866;2023-03-20T09:16:55;7.07;;;6.18;;
49193;SDS011;35029;50.804;12.866;2023-03-20T09:19:21;9.48;;;6.88;;
49193;SDS011;35029;50.804;12.866;2023-03-20T09:21:46;8.30;;;6.35;;
49193;SDS011;35029;50.804;12.866;2023-03-20T09:24:13;8.80;;;7.03;;
49193;SDS011;35029;50.804;12.866;2023-03-20T09:26:39;7.72;;;6.80;;
49193;SDS011;35029;50.804;12.866;2023-03-20T09:29:05;8.65;;;7.05;;
49193;SDS011;35029;50.804;12.866;2023-03-20T09:31:31;8.15;;;6.75;;
49193;SDS011;35029;50.804;12.866;2023-03-20T09:33:58;7.25;;;6.25;;
49193;SDS011;35029;50.804;12.866;2023-03-20T09:36:24;9.50;;;7.05;;
49193;SDS011;35029;50.804;12.866;2023-03-20T09:38:49;7.72;;;6.18;;
49193;SDS011;35029;50.804;12.866;2023-03-20T09:46:49;8.50;;;6.18;;
49193;SDS011;35029;50.804;12.866;2023-03-20T09:49:41;7.70;;;6.50;;
49193;SDS011;35029;50.804;12.866;2023-03-20T09:52:34;12.07;;;8.05;;
49193;SDS011;35029;50.804;12.866;2023-03-20T09:55:15;9.52;;;8.43;;
49193;SDS011;35029;50.804;12.866;2023-03-20T09:57:46;11.23;;;9.20;;
49193;SDS011;35029;50.804;12.866;2023-03-20T10:00:18;11.43;;;9.10;;
49193;SDS011;35029;50.804;12.866;2023-03-20T10:02:58;9.15;;;8.20;;
49193;SDS011;35029;50.804;12.866;2023-03-20T10:05:24;9.85;;;8.43;;
49193;SDS011;35029;50.804;12.866;2023-03-20T10:07:55;12.90;;;10.90;;
49193;SDS011;35029;50.804;12.866;2023-03-20T10:10:30;12.50;;;10.13;;
49193;SDS011;35029;50.804;12.866;2023-03-20T10:19:01;18.13;;;13.13;;
49193;SDS011;35029;50.804;12.866;2023-03-20T10:21:43;16.40;;;12.95;;
49193;SDS011;35029;50.804;12.866;2023-03-20T10:27:11;17.58;;;12.02;;
49193;SDS011;35029;50.804;12.866;2023-03-20T10:29:57;11.77;;;10.23;;
49193;SDS011;35029;50.804;12.866;2023-03-20T10:32:35;13.65;;;10.38;;
49193;SDS011;35029;50.804;12.866;2023-03-20T10:35:32;12.77;;;10.17;;
49193;SDS011;35029;50.804;12.866;2023-03-20T10:41:08;12.40;;;10.13;;
49193;SDS011;35029;50.804;12.866;2023-03-20T10:43:39;12.73;;;9.65;;
49193;SDS011;35029;50.804;12.866;2023-03-20T10:46:15;10.80;;;8.63;;
49193;SDS011;35029;50.804;12.866;2023-03-20T10:48:51;10.57;;;8.48;;
49193;SDS011;35029;50.804;12.866;2023-03-20T10:51:20;9.80;;;8.18;;
49193;SDS011;35029;50.804;12.866;2023-03-20T10:53:51;11.02;;;8.65;;
49193;SDS011;35029;50.804;12.866;2023-03-20T10:58:49;10.02;;;8.52;;
49193;SDS011;35029;50.804;12.866;2023-03-20T11:01:23;10.88;;;8.38;;
49193;SDS011;35029;50.804;12.866;2023-03-20T11:03:48;13.32;;;8.93;;
49193;SDS011;35029;50.804;12.866;2023-03-20T11:06:27;11.45;;;8.02;;
49193;SDS011;35029;50.804;12.866;2023-03-20T11:08:56;9.40;;;8.18;;
49193;SDS011;35029;50.804;12.866;2023-03-20T11:11:41;9.57;;;8.35;;
49193;SDS011;35029;50.804;12.866;2023-03-20T11:16:52;11.25;;;9.10;;
49193;SDS011;35029;50.804;12.866;2023-03-20T11:19:20;10.23;;;9.15;;
49193;SDS011;35029;50.804;12.866;2023-03-20T11:21:51;16.65;;;10.10;;
49193;SDS011;35029;50.804;12.866;2023-03-20T11:27:23;10.50;;;7.90;;
49193;SDS011;35029;50.804;12.866;2023-03-20T11:29:51;9.77;;;7.82;;
49193;SDS011;35029;50.804;12.866;2023-03-20T11:32:28;10.90;;;8.40;;
49193;SDS011;35029;50.804;12.866;2023-03-20T11:34:57;8.40;;;7.22;;
49193;SDS011;35029;50.804;12.866;2023-03-20T11:38:06;9.95;;;7.95;;
49193;SDS011;35029;50.804;12.866;2023-03-20T11:40:43;10.18;;;8.25;;
49193;SDS011;35029;50.804;12.866;2023-03-20T11:43:13;10.63;;;7.75;;
49193;SDS011;35029;50.804;12.866;2023-03-20T11:45:46;8.80;;;7.77;;
49193;SDS011;35029;50.804;12.866;2023-03-20T11:48:19;8.32;;;7.38;;
49193;SDS011;35029;50.804;12.866;2023-03-20T11:53:20;10.70;;;7.70;;
49193;SDS011;35029;50.804;12.866;2023-03-20T11:56:11;9.10;;;7.50;;
49193;SDS011;35029;50.804;12.866;2023-03-20T12:01:48;10.45;;;6.85;;
49193;SDS011;35029;50.804;12.866;2023-03-20T12:04:18;7.25;;;6.50;;
49193;SDS011;35029;50.804;12.866;2023-03-20T12:19:57;8.02;;;4.07;;
49193;SDS011;35029;50.804;12.866;2023-03-20T12:22:32;2.65;;;1.92;;
49193;SDS011;35029;50.804;12.866;2023-03-20T12:27:44;4.32;;;2.70;;
49193;SDS011;35029;50.804;12.866;2023-03-20T12:30:17;4.90;;;2.70;;
49193;SDS011;35029;50.804;12.866;2023-03-20T12:33:03;17.02;;;3.90;;
49193;SDS011;35029;50.804;12.866;2023-03-20T12:35:36;3.00;;;2.55;;
49193;SDS011;35029;50.804;12.866;2023-03-20T12:41:23;4.43;;;2.38;;
49193;SDS011;35029;50.804;12.866;2023-03-20T12:43:59;2.20;;;2.00;;
49193;SDS011;35029;50.804;12.866;2023-03-20T12:46:50;3.33;;;2.40;;
49193;SDS011;35029;50.804;12.866;2023-03-20T13:14:32;3.13;;;2.80;;
49193;SDS011;35029;50.804;12.866;2023-03-20T13:19:41;3.53;;;3.22;;
49193;SDS011;35029;50.804;12.866;2023-03-20T13:22:16;4.22;;;2.95;;
49193;SDS011;35029;50.804;12.866;2023-03-20T13:24:53;2.95;;;2.65;;
49193;SDS011;35029;50.804;12.866;2023-03-20T13:35:44;3.28;;;2.30;;
49193;SDS011;35029;50.804;12.866;2023-03-20T13:38:23;3.30;;;2.80;;
49193;SDS011;35029;50.804;12.866;2023-03-20T13:43:30;3.60;;;2.60;;
49193;SDS011;35029;50.804;12.866;2023-03-20T13:46:34;3.10;;;2.80;;
49193;SDS011;35029;50.804;12.866;2023-03-20T13:49:13;3.75;;;2.90;;
49193;SDS011;35029;50.804;12.866;2023-03-20T13:54:32;3.30;;;2.97;;
49193;SDS011;35029;50.804;12.866;2023-03-20T14:02:50;3.60;;;3.30;;
49193;SDS011;35029;50.804;12.866;2023-03-20T14:05:40;4.40;;;3.38;;
49193;SDS011;35029;50.804;12.866;2023-03-20T14:08:23;4.22;;;3.70;;
49193;SDS011;35029;50.804;12.866;2023-03-20T14:13:58;5.15;;;4.22;;
49193;SDS011;35029;50.804;12.866;2023-03-20T14:16:38;4.35;;;3.58;;
49193;SDS011;35029;50.804;12.866;2023-03-20T14:21:33;4.38;;;3.97;;
49193;SDS011;35029;50.804;12.866;2023-03-20T14:24:01;5.85;;;4.15;;
49193;SDS011;35029;50.804;12.866;2023-03-20T14:26:38;4.82;;;3.35;;
49193;SDS011;35029;50.804;12.866;2023-03-20T14:31:35;3.30;;;2.95;;
49193;SDS011;35029;50.804;12.866;2023-03-20T14:36:51;3.83;;;3.13;;
49193;SDS011;35029;50.804;12.866;2023-03-20T14:50:35;4.78;;;4.28;;
49193;SDS011;35029;50.804;12.866;2023-03-20T14:53:14;5.93;;;4.20;;
49193;SDS011;35029;50.804;12.866;2023-03-20T15:01:07;6.22;;;4.93;;
49193;SDS011;35029;50.804;12.866;2023-03-20T15:06:56;7.68;;;4.70;;
49193;SDS011;35029;50.804;12.866;2023-03-20T15:09:25;6.65;;;4.82;;
49193;SDS011;35029;50.804;12.866;2023-03-20T15:11:59;5.70;;;4.47;;
49193;SDS011;35029;50.804;12.866;2023-03-20T15:14:30;5.90;;;5.30;;
49193;SDS011;35029;50.804;12.866;2023-03-20T15:17:01;4.72;;;4.30;;
49193;SDS011;35029;50.804;12.866;2023-03-20T15:19:27;5.25;;;4.75;;
49193;SDS011;35029;50.804;12.866;2023-03-20T15:21:53;6.68;;;5.65;;
49193;SDS011;35029;50.804;12.866;2023-03-20T15:24:23;8.65;;;5.25;;
49193;SDS011;35029;50.804;12.866;2023-03-20T15:26:57;10.50;;;5.18;;
49193;SDS011;35029;50.804;12.866;2023-03-20T15:29:26;6.22;;;4.57;;
49193;SDS011;35029;50.804;12.866;2023-03-20T15:31:54;6.13;;;5.28;;
49193;SDS011;35029;50.804;12.866;2023-03-20T15:34:27;7.10;;;5.20;;
49193;SDS011;35029;50.804;12.866;2023-03-20T15:36:57;6.00;;;5.15;;
49193;SDS011;35029;50.804;12.866;2023-03-20T15:39:26;6.38;;;5.60;;
49193;SDS011;35029;50.804;12.866;2023-03-20T15:41:58;6.88;;;5.50;;
49193;SDS011;35029;50.804;12.866;2023-03-20T15:44:37;7.88;;;6.30;;
49193;SDS011;35029;50.804;12.866;2023-03-20T15:49:34;6.57;;;5.85;;
49193;SDS011;35029;50.804;12.866;2023-03-20T15:52:18;5.43;;;4.93;;
49193;SDS011;35029;50.804;12.866;2023-03-20T15:54:49;7.72;;;6.57;;
49193;SDS011;35029;50.804;12.866;2023-03-20T15:57:18;9.43;;;6.90;;
49193;SDS011;35029;50.804;12.866;2023-03-20T15:59:49;9.77;;;6.70;;
49193;SDS011;35029;50.804;12.866;2023-03-20T16:02:15;8.18;;;5.78;;
49193;SDS011;35029;50.804;12.866;2023-03-20T16:04:45;7.88;;;7.07;;
49193;SDS011;35029;50.804;12.866;2023-03-20T16:07:31;8.10;;;7.25;;
49193;SDS011;35029;50.804;12.866;2023-03-20T16:09:58;8.45;;;6.80;;
49193;SDS011;35029;50.804;12.866;2023-03-20T16:12:25;7.60;;;6.88;;
49193;SDS011;35029;50.804;12.866;2023-03-20T16:14:51;9.45;;;7.65;;
49193;SDS011;35029;50.804;12.866;2023-03-20T16:17:19;9.45;;;7.53;;
49193;SDS011;35029;50.804;12.866;2023-03-20T16:19:46;9.98;;;8.07;;
49193;SDS011;35029;50.804;12.866;2023-03-20T16:22:20;8.07;;;6.97;;
49193;SDS011;35029;50.804;12.866;2023-03-20T16:24:53;8.45;;;7.35;;
49193;SDS011;35029;50.804;12.866;2023-03-20T16:27:24;8.80;;;6.93;;
49193;SDS011;35029;50.804;12.866;2023-03-20T16:29:52;9.07;;;7.43;;
49193;SDS011;35029;50.804;12.866;2023-03-20T16:32:22;7.28;;;6.53;;
49193;SDS011;35029;50.804;12.866;2023-03-20T16:34:51;7.97;;;7.18;;
49193;SDS011;35029;50.804;12.866;2023-03-20T16:37:23;8.90;;;7.13;;
49193;SDS011;35029;50.804;12.866;2023-03-20T16:42:38;10.20;;;9.18;;
49193;SDS011;35029;50.804;12.866;2023-03-20T16:45:04;13.25;;;8.85;;
49193;SDS011;35029;50.804;12.866;2023-03-20T16:47:38;11.27;;;8.90;;
49193;SDS011;35029;50.804;12.866;2023-03-20T16:50:15;12.43;;;10.38;;
49193;SDS011;35029;50.804;12.866;2023-03-20T16:52:44;12.15;;;10.38;;
49193;SDS011;35029;50.804;12.866;2023-03-20T16:55:13;14.07;;;10.98;;
49193;SDS011;35029;50.804;12.866;2023-03-20T16:57:41;17.13;;;11.00;;
49193;SDS011;35029;50.804;12.866;2023-03-20T17:00:19;12.38;;;10.18;;
49193;SDS011;35029;50.804;12.866;2023-03-20T17:02:48;14.07;;;10.93;;
49193;SDS011;35029;50.804;12.866;2023-03-20T17:05:32;13.88;;;11.40;;
49193;SDS011;35029;50.804;12.866;2023-03-20T17:08:10;12.60;;;11.30;;
49193;SDS011;35029;50.804;12.866;2023-03-20T17:10:44;11.68;;;10.48;;
49193;SDS011;35029;50.804;12.866;2023-03-20T17:13:15;12.90;;;11.05;;
49193;SDS011;35029;50.804;12.866;2023-03-20T17:15:40;14.18;;;12.30;;
49193;SDS011;35029;50.804;12.866;2023-03-20T17:18:09;13.55;;;11.65;;
49193;SDS011;35029;50.804;12.866;2023-03-20T17:20:37;16.45;;;12.68;;
49193;SDS011;35029;50.804;12.866;2023-03-20T17:23:02;21.15;;;16.83;;
49193;SDS011;35029;50.804;12.866;2023-03-20T17:25:28;16.10;;;14.05;;
49193;SDS011;35029;50.804;12.866;2023-03-20T17:27:54;17.52;;;15.30;;
49193;SDS011;35029;50.804;12.866;2023-03-20T17:30:20;15.57;;;13.20;;
49193;SDS011;35029;50.804;12.866;2023-03-20T17:32:49;12.55;;;11.25;;
49193;SDS011;35029;50.804;12.866;2023-03-20T17:35:14;16.33;;;14.40;;
49193;SDS011;35029;50.804;12.866;2023-03-20T17:37:41;14.77;;;13.18;;
49193;SDS011;35029;50.804;12.866;2023-03-20T17:40:10;17.02;;;14.80;;
49193;SDS011;35029;50.804;12.866;2023-03-20T17:42:43;19.08;;;15.90;;
49193;SDS011;35029;50.804;12.866;2023-03-20T17:45:11;18.90;;;16.58;;
49193;SDS011;35029;50.804;12.866;2023-03-20T17:47:38;18.38;;;15.93;;
49193;SDS011;35029;50.804;12.866;2023-03-20T17:50:05;17.73;;;15.82;;
49193;SDS011;35029;50.804;12.866;2023-03-20T17:52:31;21.05;;;16.35;;
49193;SDS011;35029;50.804;12.866;2023-03-20T17:54:57;18.17;;;16.35;;
49193;SDS011;35029;50.804;12.866;2023-03-20T17:57:23;18.42;;;16.42;;